»·PEaware :: N368AA KSNA-KLAX

N368AA :: KSNA-KLAX

FLIGHT INFORMATION

Flight Status: Arrived
Operator: Privately registered:
United States
More flights under this callsign
Pilot: Don H. (15606)
Aircraft: BOEING 767-300
(B763)
More flights by this aircraft type
Origin: KSNA John Wayne-Orange Co
United States
Destination: KLAX Los Angeles Intl
United States
More flights between these airports :: More routes between these airports
Route: +MUSEL8 SLI
File this flight plan on PilotEdge
Remarks: EQUIP G
Altitude:
(Current/Filed)
2,700ft
Speed:
(Current/Filed)
202kts
Departed: 10-Jun-17 06:47 PM
Arrived: 10-Jun-17 07:13 PM
Distance/Time
Traveled:
32nm/0:26
Distance/Time
To Go:
Arrived

Flight Plot

Page will automatically refresh every two minutes.

Flight plan parsing failed; only flown route is shown


Map Options




Map Legend


Flown Route
Filed Route
Departure Airport
Arrival Airport
Navaid (VOR, NDB)
Fix

Horizontal Profiles

Position Reports

Time Latitude Longitude Heading Altitude Ground
Speed
10-Jun-17 18:19 33.675099 -117.865234 116 67ft 2kts
10-Jun-17 18:20 33.675064 -117.865878 43 67ft 2kts
10-Jun-17 18:21 33.675028 -117.865918 32 67ft 0kts
10-Jun-17 18:22 33.675028 -117.865918 32 67ft 0kts
10-Jun-17 18:23 33.675028 -117.865918 32 67ft 0kts
10-Jun-17 18:24 33.675028 -117.865918 32 67ft 0kts
10-Jun-17 18:25 33.675028 -117.865918 32 67ft 0kts
10-Jun-17 18:26 33.675028 -117.865918 32 67ft 0kts
10-Jun-17 18:27 33.675028 -117.865918 32 67ft 0kts
10-Jun-17 18:28 33.675028 -117.865918 32 67ft 0kts
10-Jun-17 18:29 33.675027 -117.865918 32 67ft 0kts
10-Jun-17 18:30 33.675027 -117.865918 32 67ft 0kts
10-Jun-17 18:31 33.675027 -117.865918 32 67ft 0kts
10-Jun-17 18:32 33.675028 -117.865918 32 67ft 0kts
10-Jun-17 18:33 33.675028 -117.865918 32 67ft 0kts
10-Jun-17 18:34 33.675028 -117.865918 32 67ft 0kts
10-Jun-17 18:35 33.675028 -117.865918 32 67ft 0kts
10-Jun-17 18:36 33.675028 -117.865918 32 67ft 0kts
10-Jun-17 18:37 33.675028 -117.865918 32 67ft 0kts
10-Jun-17 18:38 33.675028 -117.865918 32 67ft 0kts
10-Jun-17 18:39 33.675028 -117.865918 32 67ft 0kts
10-Jun-17 18:40 33.675028 -117.865918 32 67ft 0kts
10-Jun-17 18:41 33.675028 -117.865918 32 67ft 0kts
10-Jun-17 18:42 33.675028 -117.865918 32 67ft 0kts
10-Jun-17 18:43 33.675028 -117.865918 32 67ft 0kts
10-Jun-17 18:44 33.676157 -117.865189 26 67ft 2kts
10-Jun-17 18:45 33.678796 -117.863481 28 67ft 17kts
10-Jun-17 18:46 33.679816 -117.863584 323 67ft 0kts
10-Jun-17 18:47 33.679819 -117.863587 323 67ft 0kts
10-Jun-17 18:48 33.679937 -117.863698 319 67ft 5kts
10-Jun-17 18:49 33.672314 -117.871053 207 79ft 152kts
10-Jun-17 18:50 33.624265 -117.892792 200 1758ft 205kts
10-Jun-17 18:51 33.571030 -117.915281 198 2777ft 205kts
10-Jun-17 18:52 33.516003 -117.937372 198 4507ft 213kts
10-Jun-17 18:53 33.477526 -117.980754 283 6137ft 218kts
10-Jun-17 18:54 33.529984 -118.006337 353 6988ft 222kts
10-Jun-17 18:55 33.590597 -118.016581 350 6999ft 221kts
10-Jun-17 18:56 33.650552 -118.028311 350 7000ft 221kts
10-Jun-17 18:57 33.705788 -118.039293 350 7000ft 221kts
10-Jun-17 18:58 33.763528 -118.050807 350 7000ft 221kts
10-Jun-17 18:59 33.799490 -118.088570 300 7024ft 222kts
10-Jun-17 19:00 33.824971 -118.136450 307 7000ft 221kts
10-Jun-17 19:01 33.861940 -118.164450 0 6967ft 222kts
10-Jun-17 19:02 33.899968 -118.130000 62 5505ft 227kts
10-Jun-17 19:03 33.924394 -118.075101 61 3564ft 194kts
10-Jun-17 19:04 33.948979 -118.042653 349 2686ft 142kts
10-Jun-17 19:05 33.955104 -118.071777 233 1991ft 133kts
10-Jun-17 19:06 33.934713 -118.106654 258 2714ft 189kts
10-Jun-17 19:07 33.940009 -118.150643 281 2511ft 143kts
10-Jun-17 19:08 33.946155 -118.186020 282 2663ft 142kts
10-Jun-17 19:09 33.953145 -118.217271 296 2600ft 141kts
10-Jun-17 19:10 33.970817 -118.241297 294 2562ft 141kts
10-Jun-17 19:11 33.966451 -118.276119 259 2260ft 141kts
10-Jun-17 19:12 33.961633 -118.311736 262 1645ft 139kts
10-Jun-17 19:13 33.957388 -118.351096 263 1001ft 138kts
10-Jun-17 19:14 33.952931 -118.394317 263 302ft 136kts
10-Jun-17 19:15 33.949986 -118.422769 261 136ft 37kts
10-Jun-17 19:16 33.948696 -118.426527 230 136ft 0kts
10-Jun-17 19:17 33.946471 -118.427526 123 136ft 0kts
10-Jun-17 19:18 33.946370 -118.426362 75 136ft 14kts
10-Jun-17 19:19 33.946543 -118.425015 82 136ft 0kts
10-Jun-17 19:20 33.946787 -118.422750 82 136ft 15kts
10-Jun-17 19:21 33.947086 -118.419865 83 136ft 0kts
10-Jun-17 19:22 33.946645 -118.417904 124 136ft 9kts
10-Jun-17 19:23 33.946599 -118.417822 124 136ft 0kts
10-Jun-17 19:24 33.944358 -118.417853 173 136ft 22kts
10-Jun-17 19:25 33.939575 -118.417583 239 136ft 13kts

Navigation Log

Ident Type
Flight plan parsing failed, navigation log unavailable